Shawanga, Canada
Current Conditions -  °F | °C
As of 12:00 AM on Monday 20 Oct 2014 (Local Time) from CYQA Reporting Station
Overcast Overcast  
Wind Chill: 34°   Ceiling: 13000
Heat Index: 34°   Visibility: 9mi
Dew Point: 34°   Wind: 2mph
Humidity: 100%   Direction: 140°SE
Pressure: 29.96"   Gusts: NA
Location:  45.52°N, 80.28°W
Report Text: CYQA 200400Z AUTO 14002KT 9SM OVC130 01/01 A2996 RMK SLP156
Loading
Personal Weather Stations






























Interactive Weather Map
Tropical Storm Tracking
New forecast layout! Learn more

10-Day Weather Forecast

Advertisements
Track Severe Weather on mobile